createdAt,value
2022-12-31T00:00:14.641Z,0.53
2022-12-31T00:02:41.460Z,0.68
2022-12-31T00:05:08.913Z,0.40
2022-12-31T00:10:02.694Z,0.30
2022-12-31T00:12:29.421Z,0.40
2022-12-31T00:14:56.119Z,0.38
2022-12-31T00:17:22.815Z,0.40
2022-12-31T00:19:49.560Z,0.30
2022-12-31T00:22:16.299Z,0.40
2022-12-31T00:24:42.903Z,0.30
2022-12-31T00:27:09.456Z,0.40
2022-12-31T00:29:36.118Z,0.40
2022-12-31T00:32:02.792Z,0.40
2022-12-31T00:34:29.565Z,0.30
2022-12-31T00:36:56.300Z,0.30
2022-12-31T00:39:22.955Z,0.40
2022-12-31T00:42:03.559Z,0.40
2022-12-31T00:44:30.303Z,0.30
2022-12-31T00:46:57.048Z,0.40
2022-12-31T00:49:23.831Z,0.60
2022-12-31T00:51:50.703Z,0.30
2022-12-31T00:54:17.540Z,0.30
2022-12-31T00:56:44.732Z,0.40
2022-12-31T00:59:11.285Z,0.50
2022-12-31T01:01:40.163Z,0.30
2022-12-31T01:04:13.623Z,0.30
2022-12-31T01:06:42.436Z,0.40
2022-12-31T01:09:10.592Z,0.37
2022-12-31T01:11:37.673Z,0.60
2022-12-31T01:14:08.044Z,0.30
2022-12-31T01:16:43.264Z,0.28
2022-12-31T01:19:18.524Z,0.50
2022-12-31T01:21:47.124Z,0.20
2022-12-31T01:24:14.369Z,0.37
2022-12-31T01:26:41.587Z,0.20
2022-12-31T01:29:09.651Z,0.28
2022-12-31T01:31:37.356Z,0.40
2022-12-31T01:34:04.686Z,0.20
2022-12-31T01:36:33.553Z,0.30
2022-12-31T01:39:01.940Z,0.30
2022-12-31T01:41:34.792Z,0.20
2022-12-31T01:44:22.836Z,0.30
2022-12-31T01:47:03.111Z,0.30
2022-12-31T01:49:39.816Z,0.20
2022-12-31T01:52:13.291Z,0.38
2022-12-31T01:54:52.264Z,0.50
2022-12-31T01:57:19.729Z,0.20
2022-12-31T01:59:47.595Z,0.20
2022-12-31T02:02:16.090Z,0.30
2022-12-31T02:04:43.024Z,0.20
2022-12-31T02:07:11.322Z,0.30
2022-12-31T02:09:40.546Z,0.30
2022-12-31T02:12:09.466Z,0.30
2022-12-31T02:14:46.565Z,0.30
2022-12-31T02:17:24.906Z,0.20
2022-12-31T02:20:24.795Z,0.63
2022-12-31T02:23:44.165Z,0.40
2022-12-31T02:26:41.513Z,0.40
2022-12-31T02:29:36.192Z,0.40
2022-12-31T02:32:32.593Z,0.20
2022-12-31T02:35:23.382Z,0.10
2022-12-31T02:43:17.064Z,0.30
2022-12-31T02:45:50.324Z,0.17
2022-12-31T02:48:35.544Z,0.20
2022-12-31T02:51:04.766Z,0.30
2022-12-31T02:53:46.031Z,0.20
2022-12-31T02:56:38.135Z,0.40
2022-12-31T02:59:31.579Z,0.20
2022-12-31T03:02:15.856Z,0.20
2022-12-31T03:04:48.675Z,0.40
2022-12-31T03:07:20.792Z,0.20
2022-12-31T03:09:47.491Z,0.20
2022-12-31T03:12:34.028Z,0.20
2022-12-31T03:15:01.078Z,0.30
2022-12-31T03:17:27.693Z,0.10
2022-12-31T03:20:12.755Z,0.20
2022-12-31T03:22:42.638Z,0.28
2022-12-31T03:25:27.697Z,0.40
2022-12-31T03:27:56.030Z,0.32
2022-12-31T03:30:23.485Z,0.50
2022-12-31T03:32:51.408Z,0.47
2022-12-31T03:35:20.723Z,0.30
2022-12-31T03:37:48.554Z,0.40
2022-12-31T03:40:16.332Z,0.30
2022-12-31T03:42:42.975Z,0.30
2022-12-31T03:45:10.832Z,0.28
2022-12-31T03:47:37.637Z,0.70
2022-12-31T03:50:06.088Z,0.68
2022-12-31T03:52:32.769Z,0.60
2022-12-31T03:54:59.416Z,0.28
2022-12-31T03:57:26.127Z,0.40
2022-12-31T03:59:52.867Z,0.30
2022-12-31T04:02:23.268Z,0.52
2022-12-31T04:04:54.776Z,0.38
2022-12-31T04:07:21.475Z,0.25
2022-12-31T04:09:48.286Z,0.47
2022-12-31T04:12:15.223Z,0.30
2022-12-31T04:14:42.011Z,0.30
2022-12-31T04:17:08.973Z,0.22
2022-12-31T04:19:35.610Z,0.22
2022-12-31T04:22:02.271Z,0.40
2022-12-31T04:24:29.256Z,0.30
2022-12-31T04:26:55.928Z,0.40
2022-12-31T04:29:22.841Z,0.40
2022-12-31T04:31:49.770Z,0.28
2022-12-31T04:34:16.947Z,0.40
2022-12-31T04:36:43.630Z,0.40
2022-12-31T04:39:10.302Z,0.30
2022-12-31T04:41:36.995Z,0.45
2022-12-31T04:44:03.861Z,0.40
2022-12-31T04:46:32.825Z,0.40
2022-12-31T04:49:00.421Z,0.38
2022-12-31T04:51:28.625Z,0.20
2022-12-31T04:53:55.455Z,0.50
2022-12-31T04:56:22.804Z,0.30
2022-12-31T04:58:50.143Z,0.60
2022-12-31T05:01:17.236Z,0.50
2022-12-31T05:03:45.204Z,0.60
2022-12-31T05:06:16.988Z,0.60
2022-12-31T05:08:44.298Z,0.73
2022-12-31T05:11:11.514Z,0.63
2022-12-31T05:13:38.657Z,0.77
2022-12-31T05:16:05.983Z,0.73
2022-12-31T05:18:33.227Z,0.60
2022-12-31T05:21:00.616Z,0.60
2022-12-31T05:23:27.999Z,0.98
2022-12-31T05:25:54.694Z,0.80
2022-12-31T05:28:21.801Z,0.88
2022-12-31T05:30:50.207Z,0.63
2022-12-31T05:33:18.095Z,0.63
2022-12-31T05:35:45.330Z,0.80
2022-12-31T05:38:12.559Z,0.80
2022-12-31T05:40:39.385Z,0.68
2022-12-31T05:43:06.522Z,0.90
2022-12-31T05:45:33.181Z,0.70
2022-12-31T05:47:59.938Z,1.00
2022-12-31T05:50:26.599Z,0.70
2022-12-31T05:52:56.525Z,0.70
2022-12-31T05:55:23.766Z,0.63
2022-12-31T05:57:50.423Z,0.60
2022-12-31T06:00:17.590Z,0.55
2022-12-31T06:02:45.342Z,0.73
2022-12-31T06:05:12.320Z,0.57
2022-12-31T06:07:39.137Z,0.70
2022-12-31T06:10:06.546Z,0.77
2022-12-31T06:12:33.257Z,0.60
2022-12-31T06:15:00.250Z,0.57
2022-12-31T06:17:27.021Z,0.50
2022-12-31T06:19:53.686Z,0.63
2022-12-31T06:22:20.279Z,0.68
2022-12-31T06:24:46.954Z,0.47
2022-12-31T06:27:13.913Z,0.60
2022-12-31T06:29:40.653Z,0.70
2022-12-31T06:32:07.463Z,0.70
2022-12-31T06:34:34.127Z,0.90
2022-12-31T06:37:00.899Z,0.40
2022-12-31T06:39:27.909Z,0.40
2022-12-31T06:41:54.896Z,0.50
2022-12-31T06:44:22.734Z,0.32
2022-12-31T06:46:50.647Z,0.52
2022-12-31T06:49:17.571Z,0.50
2022-12-31T06:51:46.181Z,0.50
2022-12-31T06:54:13.773Z,0.60
2022-12-31T06:56:41.074Z,0.40
2022-12-31T06:59:25.120Z,0.52
2022-12-31T07:02:30.934Z,0.40
2022-12-31T07:05:06.578Z,0.50
2022-12-31T07:07:45.200Z,0.60
2022-12-31T07:10:12.002Z,0.60
2022-12-31T07:12:57.168Z,0.50
2022-12-31T07:15:37.239Z,0.57
2022-12-31T07:18:20.300Z,0.45
2022-12-31T07:20:47.249Z,0.40
2022-12-31T07:23:14.260Z,0.70
2022-12-31T07:25:51.222Z,0.45
2022-12-31T07:28:40.592Z,0.43
2022-12-31T07:34:37.411Z,0.57
2022-12-31T07:37:15.245Z,0.50
2022-12-31T07:39:54.278Z,0.30
2022-12-31T07:42:37.220Z,0.50
2022-12-31T07:45:31.668Z,0.52
2022-12-31T07:48:02.495Z,0.60
2022-12-31T07:50:30.221Z,0.60
2022-12-31T07:52:57.212Z,0.90
2022-12-31T07:55:23.934Z,0.70
2022-12-31T07:58:25.700Z,0.70
2022-12-31T08:00:55.450Z,0.57
2022-12-31T08:03:33.975Z,0.80
2022-12-31T08:06:12.636Z,0.60
2022-12-31T08:08:39.218Z,0.70
2022-12-31T08:11:37.968Z,0.65
2022-12-31T08:14:10.158Z,0.52
2022-12-31T08:16:37.418Z,0.50
2022-12-31T08:19:04.861Z,0.52
2022-12-31T08:21:48.405Z,0.70
2022-12-31T08:24:17.516Z,0.60
2022-12-31T08:27:19.618Z,0.70
2022-12-31T08:30:01.459Z,0.50
2022-12-31T08:32:55.305Z,0.70
2022-12-31T08:35:46.547Z,0.50
2022-12-31T08:38:21.775Z,0.63
2022-12-31T08:41:25.984Z,0.85
2022-12-31T08:44:48.362Z,0.60
2022-12-31T08:47:24.197Z,0.65
2022-12-31T08:49:53.325Z,0.90
2022-12-31T08:52:25.165Z,0.60
2022-12-31T08:54:53.171Z,0.70
2022-12-31T08:57:30.636Z,0.50
2022-12-31T09:00:09.948Z,0.80
2022-12-31T09:05:24.844Z,0.70
2022-12-31T09:08:12.739Z,0.50
2022-12-31T09:10:45.059Z,0.60
2022-12-31T09:13:14.580Z,0.80
2022-12-31T09:15:48.703Z,0.60
2022-12-31T09:18:15.607Z,0.70
2022-12-31T09:20:44.252Z,0.70
2022-12-31T09:23:12.956Z,0.80
2022-12-31T09:25:51.847Z,0.60
2022-12-31T09:28:28.477Z,0.88
2022-12-31T09:31:06.134Z,0.70
2022-12-31T09:33:56.200Z,0.68
2022-12-31T09:36:32.162Z,0.70
2022-12-31T09:39:16.854Z,0.70
2022-12-31T09:42:01.444Z,0.68
2022-12-31T09:44:43.166Z,1.10
2022-12-31T09:47:40.516Z,0.80
2022-12-31T09:50:40.976Z,0.70
2022-12-31T09:53:28.965Z,0.65
2022-12-31T09:56:10.929Z,0.80
2022-12-31T09:58:49.958Z,0.95
2022-12-31T10:01:45.449Z,0.65
2022-12-31T10:04:40.465Z,0.70
2022-12-31T10:07:32.460Z,0.80
2022-12-31T10:10:29.644Z,0.98
2022-12-31T10:13:06.809Z,0.80
2022-12-31T10:16:10.483Z,0.70
2022-12-31T10:18:46.116Z,0.70
2022-12-31T10:21:34.038Z,0.75
2022-12-31T10:24:48.772Z,0.65
2022-12-31T10:27:22.519Z,1.00
2022-12-31T10:30:02.269Z,0.90
2022-12-31T10:32:55.248Z,0.68
2022-12-31T10:35:50.674Z,0.70
2022-12-31T10:38:32.098Z,0.70
2022-12-31T10:41:35.655Z,0.80
2022-12-31T10:44:50.245Z,0.93
2022-12-31T10:47:28.910Z,0.70
2022-12-31T10:50:33.193Z,0.68
2022-12-31T10:53:18.234Z,0.75
2022-12-31T10:56:03.025Z,0.90
2022-12-31T10:58:44.663Z,0.63
2022-12-31T11:04:27.457Z,1.00
2022-12-31T11:07:09.351Z,0.70
2022-12-31T11:10:00.754Z,0.90
2022-12-31T11:12:46.125Z,0.70
2022-12-31T11:24:37.967Z,0.75
2022-12-31T11:27:21.090Z,0.98
2022-12-31T11:30:25.284Z,0.73
2022-12-31T11:33:05.503Z,0.63
2022-12-31T11:35:55.477Z,0.73
2022-12-31T11:38:22.112Z,0.70
2022-12-31T11:41:07.832Z,0.70
2022-12-31T11:43:55.734Z,0.70
2022-12-31T11:46:50.889Z,0.90
2022-12-31T11:50:02.115Z,0.70
2022-12-31T11:52:52.088Z,0.80
2022-12-31T11:55:32.947Z,0.73
2022-12-31T11:58:08.273Z,0.77
2022-12-31T12:00:35.200Z,0.80
2022-12-31T12:03:04.807Z,0.65
2022-12-31T12:05:33.491Z,0.80
2022-12-31T12:08:01.010Z,0.60
2022-12-31T12:10:35.555Z,0.70
2022-12-31T12:13:19.676Z,0.57
2022-12-31T12:15:52.566Z,0.80
2022-12-31T12:18:25.462Z,0.90
2022-12-31T12:20:52.920Z,0.88
2022-12-31T12:23:26.375Z,0.80
2022-12-31T12:25:53.404Z,0.80
2022-12-31T12:28:22.075Z,0.77
2022-12-31T12:31:03.472Z,0.70
2022-12-31T12:33:41.711Z,0.60
2022-12-31T12:36:13.821Z,0.60
2022-12-31T12:38:41.133Z,0.60
2022-12-31T12:41:19.070Z,0.85
2022-12-31T12:43:45.817Z,0.80
2022-12-31T12:46:30.728Z,0.90
2022-12-31T12:48:58.792Z,0.90
2022-12-31T12:51:31.426Z,0.90
2022-12-31T12:54:31.843Z,0.80
2022-12-31T12:57:15.246Z,0.90
2022-12-31T12:59:53.755Z,0.70
2022-12-31T13:02:41.366Z,0.85
2022-12-31T13:05:11.069Z,0.80
2022-12-31T13:07:46.589Z,1.02
2022-12-31T13:10:25.441Z,0.75
2022-12-31T13:16:08.087Z,0.90
2022-12-31T13:19:19.694Z,0.80
2022-12-31T13:22:25.094Z,0.90
2022-12-31T13:24:59.325Z,0.90
2022-12-31T13:27:35.585Z,1.02
2022-12-31T13:30:13.041Z,0.80
2022-12-31T13:32:52.754Z,0.90
2022-12-31T13:35:22.460Z,0.77
2022-12-31T13:37:51.446Z,0.80
2022-12-31T13:40:27.537Z,0.80
2022-12-31T13:43:26.232Z,0.90
2022-12-31T13:46:03.224Z,0.98
2022-12-31T13:48:40.837Z,0.73
2022-12-31T13:54:49.541Z,0.80
2022-12-31T13:57:29.130Z,1.00
2022-12-31T14:00:01.764Z,0.60
2022-12-31T14:02:44.608Z,0.88
2022-12-31T14:05:11.295Z,0.70
2022-12-31T14:07:51.583Z,0.80
2022-12-31T14:10:25.433Z,0.80
2022-12-31T14:13:34.808Z,0.85
2022-12-31T14:31:22.066Z,0.70
2022-12-31T14:34:00.669Z,0.85
2022-12-31T14:36:27.596Z,0.97
2022-12-31T14:39:21.983Z,1.00
2022-12-31T14:41:58.063Z,0.82
2022-12-31T14:44:37.961Z,0.90
2022-12-31T14:47:07.575Z,0.75
2022-12-31T14:49:55.572Z,0.93
2022-12-31T14:52:23.915Z,1.02
2022-12-31T14:55:09.136Z,1.13
2022-12-31T14:58:26.039Z,1.00
2022-12-31T15:00:35.344Z,1.50
2022-12-31T15:03:16.307Z,1.00
2022-12-31T15:06:00.126Z,1.00
2022-12-31T15:08:39.935Z,1.00
2022-12-31T15:11:15.623Z,1.00
2022-12-31T15:14:02.378Z,1.05
2022-12-31T15:17:06.267Z,1.13
2022-12-31T15:19:38.657Z,0.85
2022-12-31T15:22:56.332Z,0.80
2022-12-31T15:25:41.185Z,0.90
2022-12-31T15:28:29.789Z,0.70
2022-12-31T15:31:03.160Z,0.70
2022-12-31T15:33:34.725Z,0.90
2022-12-31T15:36:18.096Z,0.80
2022-12-31T15:38:49.683Z,0.70
2022-12-31T15:41:19.280Z,0.73
2022-12-31T15:44:12.341Z,0.70
2022-12-31T15:46:42.641Z,0.85
2022-12-31T15:49:18.337Z,0.85
2022-12-31T15:51:51.409Z,1.05
2022-12-31T15:54:39.717Z,0.60
2022-12-31T15:57:12.584Z,0.83
2022-12-31T15:59:40.800Z,0.80
2022-12-31T16:02:25.859Z,1.08
2022-12-31T16:04:55.017Z,0.70
2022-12-31T16:07:23.904Z,0.70
2022-12-31T16:12:33.130Z,0.90
2022-12-31T16:17:31.146Z,0.90
2022-12-31T16:19:59.457Z,1.00
2022-12-31T16:22:37.077Z,1.00
2022-12-31T16:25:30.256Z,0.80
2022-12-31T16:27:53.998Z,0.70
2022-12-31T16:30:31.365Z,0.70
2022-12-31T16:33:01.878Z,0.80
2022-12-31T16:35:33.565Z,0.90
2022-12-31T16:38:17.883Z,0.77
2022-12-31T16:41:20.893Z,0.75
2022-12-31T16:43:49.453Z,0.80
2022-12-31T16:46:27.018Z,0.80
2022-12-31T16:49:06.462Z,0.70
2022-12-31T16:51:36.086Z,0.82
2022-12-31T16:54:03.531Z,1.00
2022-12-31T16:56:34.451Z,0.77
2022-12-31T16:59:30.425Z,1.10
2022-12-31T17:02:02.512Z,0.80
2022-12-31T17:07:36.443Z,0.65
2022-12-31T17:10:15.986Z,1.88
2022-12-31T17:13:25.392Z,0.63
2022-12-31T17:15:42.623Z,0.70
2022-12-31T17:18:17.982Z,0.80
2022-12-31T17:20:45.057Z,0.77
2022-12-31T17:23:25.373Z,0.65
2022-12-31T17:25:59.084Z,0.68
2022-12-31T17:28:27.740Z,0.80
2022-12-31T17:31:00.786Z,0.77
2022-12-31T17:33:29.832Z,0.75
2022-12-31T17:36:14.831Z,0.82
2022-12-31T17:38:42.049Z,0.80
2022-12-31T17:41:27.711Z,0.73
2022-12-31T17:43:55.732Z,0.65
2022-12-31T17:46:24.019Z,0.90
2022-12-31T17:48:57.157Z,0.70
2022-12-31T17:51:24.606Z,0.80
2022-12-31T17:53:51.668Z,0.70
2022-12-31T17:56:19.734Z,1.10
2022-12-31T17:58:51.064Z,0.95
2022-12-31T18:01:20.734Z,0.60
2022-12-31T18:03:48.486Z,1.00
2022-12-31T18:06:17.085Z,0.70
2022-12-31T18:08:44.143Z,0.90
2022-12-31T18:11:31.360Z,1.10
2022-12-31T18:13:58.064Z,0.88
2022-12-31T18:16:24.856Z,0.85
2022-12-31T18:18:51.626Z,0.90
2022-12-31T18:21:25.841Z,1.20
2022-12-31T18:26:22.176Z,0.73
2022-12-31T18:28:49.798Z,1.00
2022-12-31T18:31:24.945Z,0.80
2022-12-31T18:33:53.861Z,0.80
2022-12-31T18:36:21.639Z,0.90
2022-12-31T18:38:48.986Z,0.70
2022-12-31T18:41:27.016Z,0.95
2022-12-31T18:43:54.440Z,0.95
2022-12-31T18:46:24.993Z,0.80
2022-12-31T18:48:51.771Z,0.70
2022-12-31T18:51:23.966Z,1.23
2022-12-31T18:53:53.324Z,0.98
2022-12-31T18:56:21.501Z,0.93
2022-12-31T18:58:48.564Z,0.95
2022-12-31T19:01:30.897Z,0.88
2022-12-31T19:04:00.300Z,0.80
2022-12-31T19:06:27.935Z,1.08
2022-12-31T19:08:54.792Z,0.80
2022-12-31T19:11:22.675Z,0.80
2022-12-31T19:13:49.745Z,1.08
2022-12-31T19:16:17.940Z,0.90
2022-12-31T19:18:44.959Z,0.70
2022-12-31T19:21:19.275Z,0.80
2022-12-31T19:23:46.913Z,0.80
2022-12-31T19:26:18.340Z,0.90
2022-12-31T19:28:46.629Z,0.90
2022-12-31T19:31:14.046Z,0.90
2022-12-31T19:33:41.171Z,0.93
2022-12-31T19:36:15.258Z,0.95
2022-12-31T19:38:42.308Z,1.10
2022-12-31T19:41:18.768Z,1.10
2022-12-31T19:43:46.941Z,1.10
2022-12-31T19:46:18.228Z,1.00
2022-12-31T19:48:45.858Z,0.90
2022-12-31T19:51:16.685Z,0.98
2022-12-31T19:53:52.323Z,0.90
2022-12-31T19:56:20.415Z,1.02
2022-12-31T19:58:47.460Z,0.98
2022-12-31T20:01:22.819Z,1.10
2022-12-31T20:03:50.247Z,1.00
2022-12-31T20:06:18.667Z,0.90
2022-12-31T20:08:46.593Z,0.80
2022-12-31T20:11:21.548Z,0.88
2022-12-31T20:13:49.920Z,0.90
2022-12-31T20:16:19.074Z,0.90
2022-12-31T20:21:17.854Z,0.75
2022-12-31T20:23:45.406Z,1.00
2022-12-31T20:26:12.558Z,0.90
2022-12-31T20:28:39.287Z,0.80
2022-12-31T20:31:25.365Z,0.90
2022-12-31T20:33:54.156Z,0.90
2022-12-31T20:36:21.262Z,0.90
2022-12-31T20:38:48.533Z,1.20
2022-12-31T20:41:20.781Z,1.20
2022-12-31T20:43:48.464Z,1.08
2022-12-31T20:46:21.245Z,0.85
2022-12-31T20:48:49.518Z,0.98
2022-12-31T20:51:17.832Z,0.83
2022-12-31T20:53:56.180Z,0.70
2022-12-31T20:56:24.133Z,1.03
2022-12-31T20:58:50.888Z,1.00
2022-12-31T21:01:18.404Z,0.75
2022-12-31T21:04:04.907Z,1.00
2022-12-31T21:06:33.777Z,1.02
2022-12-31T21:09:01.912Z,0.90
2022-12-31T21:11:47.660Z,0.98
2022-12-31T21:14:14.517Z,0.98
2022-12-31T21:16:41.216Z,0.93
2022-12-31T21:19:08.195Z,1.25
2022-12-31T21:21:35.090Z,1.17
2022-12-31T21:24:02.434Z,1.00
2022-12-31T21:26:48.099Z,1.00
2022-12-31T21:29:14.966Z,0.80
2022-12-31T21:31:41.583Z,1.25
2022-12-31T21:34:09.920Z,0.90
2022-12-31T21:36:36.658Z,0.80
2022-12-31T21:39:03.808Z,1.00
2022-12-31T21:41:49.249Z,0.98
2022-12-31T21:44:15.854Z,1.02
2022-12-31T21:47:00.858Z,0.90
2022-12-31T21:49:29.135Z,1.00
2022-12-31T21:52:14.397Z,1.08
2022-12-31T21:54:59.507Z,1.05
2022-12-31T21:57:26.249Z,1.05
2022-12-31T22:00:40.515Z,0.98
2022-12-31T22:03:17.426Z,1.05
2022-12-31T22:05:49.711Z,1.05
2022-12-31T22:08:16.779Z,0.80
2022-12-31T22:10:51.946Z,0.90
2022-12-31T22:13:19.486Z,0.98
2022-12-31T22:15:47.822Z,0.80
2022-12-31T22:18:16.361Z,1.13
2022-12-31T22:20:43.372Z,1.10
2022-12-31T22:23:10.335Z,1.10
2022-12-31T22:25:39.137Z,1.00
2022-12-31T22:30:54.375Z,0.90
2022-12-31T22:33:21.235Z,0.80
2022-12-31T22:36:05.575Z,1.25
2022-12-31T22:38:33.249Z,1.05
2022-12-31T22:41:07.036Z,0.88
2022-12-31T22:43:35.765Z,1.05
2022-12-31T22:46:09.845Z,0.98
2022-12-31T22:48:37.599Z,0.90
2022-12-31T22:51:04.617Z,0.80
2022-12-31T22:53:31.493Z,0.90
2022-12-31T22:55:58.373Z,0.90
2022-12-31T22:58:25.834Z,1.05
2022-12-31T23:00:53.491Z,1.00
2022-12-31T23:03:20.299Z,0.80
2022-12-31T23:05:51.901Z,0.90
2022-12-31T23:08:23.424Z,0.82
2022-12-31T23:11:11.592Z,1.02
2022-12-31T23:13:59.814Z,0.98
2022-12-31T23:16:47.551Z,1.00
2022-12-31T23:19:34.272Z,1.10
2022-12-31T23:22:19.966Z,0.80
2022-12-31T23:24:46.781Z,1.15
2022-12-31T23:27:13.627Z,0.90
2022-12-31T23:29:46.785Z,0.80
2022-12-31T23:32:18.142Z,1.10
2022-12-31T23:34:46.659Z,1.10
2022-12-31T23:37:14.606Z,0.80
2022-12-31T23:39:42.028Z,0.75
2022-12-31T23:42:09.037Z,1.10
2022-12-31T23:44:35.656Z,1.20
2022-12-31T23:47:02.360Z,1.00
2022-12-31T23:49:29.219Z,1.40
2022-12-31T23:51:55.885Z,1.02
2022-12-31T23:54:22.550Z,1.00
2022-12-31T23:56:49.220Z,1.00
2022-12-31T23:59:16.207Z,1.00
